sensor_id;sensor_type;location;lat;lon;timestamp;temperature;humidity
25138;DHT22;13112;50.986;4.354;2023-01-26T00:01:13;0.20;99.90
25138;DHT22;13112;50.986;4.354;2023-01-26T00:03:39;0.20;99.90
25138;DHT22;13112;50.986;4.354;2023-01-26T00:06:06;0.20;99.90
25138;DHT22;13112;50.986;4.354;2023-01-26T00:08:40;0.20;99.90
25138;DHT22;13112;50.986;4.354;2023-01-26T00:11:07;0.20;99.90
25138;DHT22;13112;50.986;4.354;2023-01-26T00:13:34;0.20;99.90
25138;DHT22;13112;50.986;4.354;2023-01-26T00:16:01;0.20;99.90
25138;DHT22;13112;50.986;4.354;2023-01-26T00:18:27;0.20;99.90
25138;DHT22;13112;50.986;4.354;2023-01-26T00:20:56;0.20;99.90
25138;DHT22;13112;50.986;4.354;2023-01-26T00:23:23;0.20;99.90
25138;DHT22;13112;50.986;4.354;2023-01-26T00:25:49;0.10;99.90
25138;DHT22;13112;50.986;4.354;2023-01-26T00:28:15;0.20;99.90
25138;DHT22;13112;50.986;4.354;2023-01-26T00:30:40;0.20;99.90
25138;DHT22;13112;50.986;4.354;2023-01-26T00:33:06;0.20;99.90
25138;DHT22;13112;50.986;4.354;2023-01-26T00:35:32;0.20;99.90
25138;DHT22;13112;50.986;4.354;2023-01-26T00:37:58;0.20;99.90
25138;DHT22;13112;50.986;4.354;2023-01-26T00:40:23;0.30;99.90
25138;DHT22;13112;50.986;4.354;2023-01-26T00:42:49;0.30;99.90
25138;DHT22;13112;50.986;4.354;2023-01-26T00:45:15;0.30;99.90
25138;DHT22;13112;50.986;4.354;2023-01-26T00:47:40;0.20;99.90
25138;DHT22;13112;50.986;4.354;2023-01-26T00:50:07;0.30;99.90
25138;DHT22;13112;50.986;4.354;2023-01-26T00:52:33;0.20;99.90
25138;DHT22;13112;50.986;4.354;2023-01-26T00:54:58;0.30;99.90
25138;DHT22;13112;50.986;4.354;2023-01-26T00:57:24;0.30;99.90
25138;DHT22;13112;50.986;4.354;2023-01-26T00:59:50;0.30;99.90
25138;DHT22;13112;50.986;4.354;2023-01-26T01:02:16;0.30;99.90
25138;DHT22;13112;50.986;4.354;2023-01-26T01:04:41;0.30;99.90
25138;DHT22;13112;50.986;4.354;2023-01-26T01:07:07;0.30;99.90
25138;DHT22;13112;50.986;4.354;2023-01-26T01:09:33;0.30;99.90
25138;DHT22;13112;50.986;4.354;2023-01-26T01:11:58;0.30;99.90
25138;DHT22;13112;50.986;4.354;2023-01-26T01:14:24;0.30;99.90
25138;DHT22;13112;50.986;4.354;2023-01-26T01:16:50;0.30;99.90
25138;DHT22;13112;50.986;4.354;2023-01-26T01:19:16;0.30;99.90
25138;DHT22;13112;50.986;4.354;2023-01-26T01:21:43;0.30;99.90
25138;DHT22;13112;50.986;4.354;2023-01-26T01:24:12;0.40;99.90
25138;DHT22;13112;50.986;4.354;2023-01-26T01:26:39;0.40;99.90
25138;DHT22;13112;50.986;4.354;2023-01-26T01:29:05;0.50;99.90
25138;DHT22;13112;50.986;4.354;2023-01-26T01:31:31;0.50;99.90
25138;DHT22;13112;50.986;4.354;2023-01-26T01:33:57;0.40;99.90
25138;DHT22;13112;50.986;4.354;2023-01-26T01:36:23;0.50;99.90
25138;DHT22;13112;50.986;4.354;2023-01-26T01:38:49;0.40;99.90
25138;DHT22;13112;50.986;4.354;2023-01-26T01:41:17;0.40;99.90
25138;DHT22;13112;50.986;4.354;2023-01-26T01:43:43;0.40;99.90
25138;DHT22;13112;50.986;4.354;2023-01-26T01:46:30;0.40;99.90
25138;DHT22;13112;50.986;4.354;2023-01-26T01:49:03;0.40;99.90
25138;DHT22;13112;50.986;4.354;2023-01-26T01:51:37;0.40;99.90
25138;DHT22;13112;50.986;4.354;2023-01-26T01:54:07;0.40;99.90
25138;DHT22;13112;50.986;4.354;2023-01-26T01:56:36;0.40;99.90
25138;DHT22;13112;50.986;4.354;2023-01-26T01:59:05;0.40;99.90
25138;DHT22;13112;50.986;4.354;2023-01-26T02:01:33;0.40;99.90
25138;DHT22;13112;50.986;4.354;2023-01-26T02:04:00;0.40;99.90
25138;DHT22;13112;50.986;4.354;2023-01-26T02:06:32;0.60;99.90
25138;DHT22;13112;50.986;4.354;2023-01-26T02:09:00;0.50;99.90
25138;DHT22;13112;50.986;4.354;2023-01-26T02:11:35;0.40;99.90
25138;DHT22;13112;50.986;4.354;2023-01-26T02:14:05;0.40;99.90
25138;DHT22;13112;50.986;4.354;2023-01-26T02:16:32;0.40;99.90
25138;DHT22;13112;50.986;4.354;2023-01-26T02:18:58;0.40;99.90
25138;DHT22;13112;50.986;4.354;2023-01-26T02:21:24;0.40;99.90
25138;DHT22;13112;50.986;4.354;2023-01-26T02:23:57;0.50;99.90
25138;DHT22;13112;50.986;4.354;2023-01-26T02:26:31;0.50;99.90
25138;DHT22;13112;50.986;4.354;2023-01-26T02:28:58;0.50;99.90
25138;DHT22;13112;50.986;4.354;2023-01-26T02:31:24;0.50;99.90
25138;DHT22;13112;50.986;4.354;2023-01-26T02:33:51;0.50;99.90
25138;DHT22;13112;50.986;4.354;2023-01-26T02:36:25;0.70;99.90
25138;DHT22;13112;50.986;4.354;2023-01-26T02:41:38;0.90;99.90
25138;DHT22;13112;50.986;4.354;2023-01-26T02:44:23;1.10;99.90
25138;DHT22;13112;50.986;4.354;2023-01-26T02:46:49;1.30;99.90
25138;DHT22;13112;50.986;4.354;2023-01-26T02:49:15;1.40;99.90
25138;DHT22;13112;50.986;4.354;2023-01-26T02:52:00;1.50;99.90
25138;DHT22;13112;50.986;4.354;2023-01-26T02:54:25;1.60;99.90
25138;DHT22;13112;50.986;4.354;2023-01-26T02:57:10;1.60;99.90
25138;DHT22;13112;50.986;4.354;2023-01-26T02:59:35;1.70;99.90
25138;DHT22;13112;50.986;4.354;2023-01-26T03:02:01;1.80;99.90
25138;DHT22;13112;50.986;4.354;2023-01-26T03:04:27;1.80;99.90
25138;DHT22;13112;50.986;4.354;2023-01-26T03:06:52;1.90;99.90
25138;DHT22;13112;50.986;4.354;2023-01-26T03:09:18;1.90;99.90
25138;DHT22;13112;50.986;4.354;2023-01-26T03:11:44;1.80;99.90
25138;DHT22;13112;50.986;4.354;2023-01-26T03:14:13;1.90;99.90
25138;DHT22;13112;50.986;4.354;2023-01-26T03:16:40;1.80;99.90
25138;DHT22;13112;50.986;4.354;2023-01-26T03:19:12;1.60;99.90
25138;DHT22;13112;50.986;4.354;2023-01-26T03:21:57;1.70;99.90
25138;DHT22;13112;50.986;4.354;2023-01-26T03:24:42;1.80;99.90
25138;DHT22;13112;50.986;4.354;2023-01-26T03:27:28;1.80;99.90
25138;DHT22;13112;50.986;4.354;2023-01-26T03:29:55;1.80;99.90
25138;DHT22;13112;50.986;4.354;2023-01-26T03:32:22;1.70;99.90
25138;DHT22;13112;50.986;4.354;2023-01-26T03:34:48;1.70;99.90
25138;DHT22;13112;50.986;4.354;2023-01-26T03:37:13;1.60;99.90
25138;DHT22;13112;50.986;4.354;2023-01-26T03:39:39;1.40;99.90
25138;DHT22;13112;50.986;4.354;2023-01-26T03:42:23;1.10;99.90
25138;DHT22;13112;50.986;4.354;2023-01-26T03:45:08;0.90;99.90
25138;DHT22;13112;50.986;4.354;2023-01-26T03:47:52;0.90;99.90
25138;DHT22;13112;50.986;4.354;2023-01-26T03:50:36;1.10;99.90
25138;DHT22;13112;50.986;4.354;2023-01-26T03:53:22;1.30;99.90
25138;DHT22;13112;50.986;4.354;2023-01-26T03:56:09;1.40;99.90
25138;DHT22;13112;50.986;4.354;2023-01-26T03:58:59;1.20;99.90
25138;DHT22;13112;50.986;4.354;2023-01-26T04:01:37;1.40;99.90
25138;DHT22;13112;50.986;4.354;2023-01-26T04:04:04;1.40;99.90
25138;DHT22;13112;50.986;4.354;2023-01-26T04:06:49;1.40;99.90
25138;DHT22;13112;50.986;4.354;2023-01-26T04:09:34;1.40;99.90
25138;DHT22;13112;50.986;4.354;2023-01-26T04:12:02;1.30;99.90
25138;DHT22;13112;50.986;4.354;2023-01-26T04:14:27;1.40;99.90
25138;DHT22;13112;50.986;4.354;2023-01-26T04:17:12;1.50;99.90
25138;DHT22;13112;50.986;4.354;2023-01-26T04:19:56;1.60;99.90
25138;DHT22;13112;50.986;4.354;2023-01-26T04:22:41;1.70;99.90
25138;DHT22;13112;50.986;4.354;2023-01-26T04:25:18;1.60;99.90
25138;DHT22;13112;50.986;4.354;2023-01-26T04:27:44;1.70;99.90
25138;DHT22;13112;50.986;4.354;2023-01-26T04:30:12;1.70;99.90
25138;DHT22;13112;50.986;4.354;2023-01-26T04:32:38;1.80;99.90
25138;DHT22;13112;50.986;4.354;2023-01-26T04:35:07;1.80;99.90
25138;DHT22;13112;50.986;4.354;2023-01-26T04:37:33;1.80;99.90
25138;DHT22;13112;50.986;4.354;2023-01-26T04:39:59;1.70;99.90
25138;DHT22;13112;50.986;4.354;2023-01-26T04:42:25;1.70;99.90
25138;DHT22;13112;50.986;4.354;2023-01-26T04:44:51;1.60;99.90
25138;DHT22;13112;50.986;4.354;2023-01-26T04:47:18;1.50;99.90
25138;DHT22;13112;50.986;4.354;2023-01-26T04:49:44;1.30;99.90
25138;DHT22;13112;50.986;4.354;2023-01-26T04:52:10;1.20;99.90
25138;DHT22;13112;50.986;4.354;2023-01-26T04:54:35;1.20;99.90
25138;DHT22;13112;50.986;4.354;2023-01-26T04:57:01;1.40;99.90
25138;DHT22;13112;50.986;4.354;2023-01-26T04:59:27;1.50;99.90
25138;DHT22;13112;50.986;4.354;2023-01-26T05:01:52;1.70;99.90
25138;DHT22;13112;50.986;4.354;2023-01-26T05:04:18;1.60;99.90
25138;DHT22;13112;50.986;4.354;2023-01-26T05:06:44;1.60;99.90
25138;DHT22;13112;50.986;4.354;2023-01-26T05:09:10;1.50;99.90
25138;DHT22;13112;50.986;4.354;2023-01-26T05:11:36;1.70;99.90
25138;DHT22;13112;50.986;4.354;2023-01-26T05:14:02;1.80;99.90
25138;DHT22;13112;50.986;4.354;2023-01-26T05:16:27;1.90;99.90
25138;DHT22;13112;50.986;4.354;2023-01-26T05:18:53;2.00;99.90
25138;DHT22;13112;50.986;4.354;2023-01-26T05:21:20;2.10;99.90
25138;DHT22;13112;50.986;4.354;2023-01-26T05:23:50;2.10;99.90
25138;DHT22;13112;50.986;4.354;2023-01-26T05:26:16;2.00;99.90
25138;DHT22;13112;50.986;4.354;2023-01-26T05:28:42;2.10;99.90
25138;DHT22;13112;50.986;4.354;2023-01-26T05:31:07;2.00;99.90
25138;DHT22;13112;50.986;4.354;2023-01-26T05:33:33;1.90;99.90
25138;DHT22;13112;50.986;4.354;2023-01-26T05:36:05;1.90;99.90
25138;DHT22;13112;50.986;4.354;2023-01-26T05:38:31;1.70;99.90
25138;DHT22;13112;50.986;4.354;2023-01-26T05:40:57;1.60;99.90
25138;DHT22;13112;50.986;4.354;2023-01-26T05:43:24;1.70;99.90
25138;DHT22;13112;50.986;4.354;2023-01-26T05:45:50;1.70;99.90
25138;DHT22;13112;50.986;4.354;2023-01-26T05:48:15;1.80;99.90
25138;DHT22;13112;50.986;4.354;2023-01-26T05:50:41;1.90;99.90
25138;DHT22;13112;50.986;4.354;2023-01-26T05:53:07;1.90;99.90
25138;DHT22;13112;50.986;4.354;2023-01-26T05:55:32;1.90;99.90
25138;DHT22;13112;50.986;4.354;2023-01-26T05:57:58;1.90;99.90
25138;DHT22;13112;50.986;4.354;2023-01-26T06:00:24;2.00;99.90
25138;DHT22;13112;50.986;4.354;2023-01-26T06:02:50;2.10;99.90
25138;DHT22;13112;50.986;4.354;2023-01-26T06:05:16;2.40;99.90
25138;DHT22;13112;50.986;4.354;2023-01-26T06:07:41;2.40;99.90
25138;DHT22;13112;50.986;4.354;2023-01-26T06:10:08;2.40;99.90
25138;DHT22;13112;50.986;4.354;2023-01-26T06:12:33;2.50;99.90
25138;DHT22;13112;50.986;4.354;2023-01-26T06:15:04;2.60;99.90
25138;DHT22;13112;50.986;4.354;2023-01-26T06:17:30;2.60;99.90
25138;DHT22;13112;50.986;4.354;2023-01-26T06:19:56;2.70;99.90
25138;DHT22;13112;50.986;4.354;2023-01-26T06:22:22;2.70;99.90
25138;DHT22;13112;50.986;4.354;2023-01-26T06:24:48;2.70;99.90
25138;DHT22;13112;50.986;4.354;2023-01-26T06:27:15;2.60;99.90
25138;DHT22;13112;50.986;4.354;2023-01-26T06:29:41;2.50;99.90
25138;DHT22;13112;50.986;4.354;2023-01-26T06:32:09;2.50;99.90
25138;DHT22;13112;50.986;4.354;2023-01-26T06:34:35;2.40;99.90
25138;DHT22;13112;50.986;4.354;2023-01-26T06:37:03;2.50;99.90
25138;DHT22;13112;50.986;4.354;2023-01-26T06:39:29;2.50;99.90
25138;DHT22;13112;50.986;4.354;2023-01-26T06:41:55;2.70;99.90
25138;DHT22;13112;50.986;4.354;2023-01-26T06:44:20;2.70;99.90
25138;DHT22;13112;50.986;4.354;2023-01-26T06:46:46;2.80;99.90
25138;DHT22;13112;50.986;4.354;2023-01-26T06:49:12;2.70;99.90
25138;DHT22;13112;50.986;4.354;2023-01-26T06:52:02;2.80;99.90
25138;DHT22;13112;50.986;4.354;2023-01-26T06:54:28;2.80;99.90
25138;DHT22;13112;50.986;4.354;2023-01-26T06:56:54;2.80;99.90
25138;DHT22;13112;50.986;4.354;2023-01-26T06:59:19;2.90;99.90
25138;DHT22;13112;50.986;4.354;2023-01-26T07:01:46;2.90;99.90
25138;DHT22;13112;50.986;4.354;2023-01-26T07:04:13;2.90;99.90
25138;DHT22;13112;50.986;4.354;2023-01-26T07:06:40;2.80;99.90
25138;DHT22;13112;50.986;4.354;2023-01-26T07:09:07;2.80;99.90
25138;DHT22;13112;50.986;4.354;2023-01-26T07:11:33;2.80;99.90
25138;DHT22;13112;50.986;4.354;2023-01-26T07:13:58;2.80;99.90
25138;DHT22;13112;50.986;4.354;2023-01-26T07:16:24;2.80;99.90
25138;DHT22;13112;50.986;4.354;2023-01-26T07:18:51;2.80;99.90
25138;DHT22;13112;50.986;4.354;2023-01-26T07:21:17;2.90;99.90
25138;DHT22;13112;50.986;4.354;2023-01-26T07:23:44;2.90;99.90
25138;DHT22;13112;50.986;4.354;2023-01-26T07:26:10;2.80;99.90
25138;DHT22;13112;50.986;4.354;2023-01-26T07:28:36;2.90;99.90
25138;DHT22;13112;50.986;4.354;2023-01-26T07:31:04;2.90;99.90
25138;DHT22;13112;50.986;4.354;2023-01-26T07:33:31;2.90;99.90
25138;DHT22;13112;50.986;4.354;2023-01-26T07:35:58;3.00;99.90
25138;DHT22;13112;50.986;4.354;2023-01-26T07:38:24;3.00;99.90
25138;DHT22;13112;50.986;4.354;2023-01-26T07:40:51;3.00;99.90
25138;DHT22;13112;50.986;4.354;2023-01-26T07:43:17;3.00;99.90
25138;DHT22;13112;50.986;4.354;2023-01-26T07:45:51;3.00;99.90
25138;DHT22;13112;50.986;4.354;2023-01-26T07:48:21;3.00;99.90
25138;DHT22;13112;50.986;4.354;2023-01-26T07:50:47;3.00;99.90
25138;DHT22;13112;50.986;4.354;2023-01-26T07:53:14;3.00;99.90
25138;DHT22;13112;50.986;4.354;2023-01-26T07:55:44;3.00;99.90
25138;DHT22;13112;50.986;4.354;2023-01-26T07:58:10;3.00;99.90
25138;DHT22;13112;50.986;4.354;2023-01-26T08:00:36;3.00;99.90
25138;DHT22;13112;50.986;4.354;2023-01-26T08:03:02;3.00;99.90
25138;DHT22;13112;50.986;4.354;2023-01-26T08:05:28;3.10;99.90
25138;DHT22;13112;50.986;4.354;2023-01-26T08:08:00;3.10;99.90
25138;DHT22;13112;50.986;4.354;2023-01-26T08:10:26;3.20;99.90
25138;DHT22;13112;50.986;4.354;2023-01-26T08:12:57;3.20;99.90
25138;DHT22;13112;50.986;4.354;2023-01-26T08:15:23;3.20;99.90
25138;DHT22;13112;50.986;4.354;2023-01-26T08:17:48;3.20;99.90
25138;DHT22;13112;50.986;4.354;2023-01-26T08:20:14;3.20;99.90
25138;DHT22;13112;50.986;4.354;2023-01-26T08:22:40;3.20;99.90
25138;DHT22;13112;50.986;4.354;2023-01-26T08:25:06;3.20;99.90
25138;DHT22;13112;50.986;4.354;2023-01-26T08:27:32;3.30;99.90
25138;DHT22;13112;50.986;4.354;2023-01-26T08:29:57;3.20;99.90
25138;DHT22;13112;50.986;4.354;2023-01-26T08:32:24;3.30;99.90
25138;DHT22;13112;50.986;4.354;2023-01-26T08:34:50;3.40;99.90
25138;DHT22;13112;50.986;4.354;2023-01-26T08:37:15;3.50;99.90
25138;DHT22;13112;50.986;4.354;2023-01-26T08:39:41;3.40;99.90
25138;DHT22;13112;50.986;4.354;2023-01-26T08:42:07;3.40;99.90
25138;DHT22;13112;50.986;4.354;2023-01-26T08:44:32;3.40;99.90
25138;DHT22;13112;50.986;4.354;2023-01-26T08:46:58;3.40;99.90
25138;DHT22;13112;50.986;4.354;2023-01-26T08:49:24;3.40;99.90
25138;DHT22;13112;50.986;4.354;2023-01-26T08:51:49;3.60;99.90
25138;DHT22;13112;50.986;4.354;2023-01-26T08:54:15;3.60;99.90
25138;DHT22;13112;50.986;4.354;2023-01-26T08:56:41;3.70;99.90
25138;DHT22;13112;50.986;4.354;2023-01-26T08:59:06;3.70;99.90
25138;DHT22;13112;50.986;4.354;2023-01-26T09:01:32;3.80;99.90
25138;DHT22;13112;50.986;4.354;2023-01-26T09:03:58;4.00;99.90
25138;DHT22;13112;50.986;4.354;2023-01-26T09:06:24;3.90;99.90
25138;DHT22;13112;50.986;4.354;2023-01-26T09:08:52;4.10;99.90
25138;DHT22;13112;50.986;4.354;2023-01-26T09:11:17;4.00;99.90
25138;DHT22;13112;50.986;4.354;2023-01-26T09:13:43;4.00;99.90
25138;DHT22;13112;50.986;4.354;2023-01-26T09:16:16;4.00;99.90
25138;DHT22;13112;50.986;4.354;2023-01-26T09:18:43;4.00;99.90
25138;DHT22;13112;50.986;4.354;2023-01-26T09:21:09;4.20;99.90
25138;DHT22;13112;50.986;4.354;2023-01-26T09:23:35;4.20;99.90
25138;DHT22;13112;50.986;4.354;2023-01-26T09:26:03;4.10;99.90
25138;DHT22;13112;50.986;4.354;2023-01-26T09:28:29;4.20;99.90
25138;DHT22;13112;50.986;4.354;2023-01-26T09:30:54;4.20;99.90
25138;DHT22;13112;50.986;4.354;2023-01-26T09:33:20;4.30;99.90
25138;DHT22;13112;50.986;4.354;2023-01-26T09:35:48;4.30;99.90
25138;DHT22;13112;50.986;4.354;2023-01-26T09:38:14;4.30;99.90
25138;DHT22;13112;50.986;4.354;2023-01-26T09:40:52;4.20;99.90
25138;DHT22;13112;50.986;4.354;2023-01-26T09:56:41;4.60;99.90
25138;DHT22;13112;50.986;4.354;2023-01-26T09:59:33;4.60;99.90
25138;DHT22;13112;50.986;4.354;2023-01-26T10:01:59;4.70;99.90
25138;DHT22;13112;50.986;4.354;2023-01-26T10:04:33;4.80;99.90
25138;DHT22;13112;50.986;4.354;2023-01-26T10:07:12;4.70;99.90
25138;DHT22;13112;50.986;4.354;2023-01-26T10:09:40;4.70;99.90
25138;DHT22;13112;50.986;4.354;2023-01-26T10:14:51;4.80;99.90
25138;DHT22;13112;50.986;4.354;2023-01-26T10:17:32;4.80;99.90
25138;DHT22;13112;50.986;4.354;2023-01-26T10:22:51;5.10;99.90
25138;DHT22;13112;50.986;4.354;2023-01-26T10:25:33;5.20;99.90
25138;DHT22;13112;50.986;4.354;2023-01-26T10:28:14;5.20;99.90
25138;DHT22;13112;50.986;4.354;2023-01-26T10:30:42;5.20;99.90
25138;DHT22;13112;50.986;4.354;2023-01-26T10:33:30;5.20;99.90
25138;DHT22;13112;50.986;4.354;2023-01-26T10:35:57;5.30;99.90
25138;DHT22;13112;50.986;4.354;2023-01-26T10:41:02;5.30;99.90
25138;DHT22;13112;50.986;4.354;2023-01-26T10:43:29;5.20;99.90
25138;DHT22;13112;50.986;4.354;2023-01-26T10:45:55;5.30;99.90
25138;DHT22;13112;50.986;4.354;2023-01-26T10:48:23;5.30;99.90
25138;DHT22;13112;50.986;4.354;2023-01-26T10:50:52;5.40;99.90
25138;DHT22;13112;50.986;4.354;2023-01-26T10:53:23;5.50;99.90
25138;DHT22;13112;50.986;4.354;2023-01-26T11:01:12;5.70;99.90
25138;DHT22;13112;50.986;4.354;2023-01-26T11:03:40;5.80;99.90
25138;DHT22;13112;50.986;4.354;2023-01-26T11:06:15;5.80;99.90
25138;DHT22;13112;50.986;4.354;2023-01-26T11:08:42;5.80;99.90
25138;DHT22;13112;50.986;4.354;2023-01-26T11:11:25;6.00;99.90
25138;DHT22;13112;50.986;4.354;2023-01-26T11:14:13;6.10;99.90
25138;DHT22;13112;50.986;4.354;2023-01-26T11:16:49;6.10;99.90
25138;DHT22;13112;50.986;4.354;2023-01-26T11:22:12;6.20;99.90
25138;DHT22;13112;50.986;4.354;2023-01-26T11:24:49;6.30;99.90
25138;DHT22;13112;50.986;4.354;2023-01-26T11:27:50;6.30;99.90
25138;DHT22;13112;50.986;4.354;2023-01-26T11:30:43;6.40;99.90
25138;DHT22;13112;50.986;4.354;2023-01-26T11:33:30;6.40;99.90
25138;DHT22;13112;50.986;4.354;2023-01-26T11:36:32;6.40;99.90
25138;DHT22;13112;50.986;4.354;2023-01-26T11:45:20;6.80;99.90
25138;DHT22;13112;50.986;4.354;2023-01-26T12:00:58;7.20;99.90
25138;DHT22;13112;50.986;4.354;2023-01-26T12:05:57;7.40;99.90
25138;DHT22;13112;50.986;4.354;2023-01-26T12:08:33;7.50;99.90
25138;DHT22;13112;50.986;4.354;2023-01-26T12:20:33;8.40;99.90
25138;DHT22;13112;50.986;4.354;2023-01-26T12:23:09;9.00;99.90
25138;DHT22;13112;50.986;4.354;2023-01-26T12:25:40;9.00;99.90
25138;DHT22;13112;50.986;4.354;2023-01-26T12:33:09;9.50;99.90
25138;DHT22;13112;50.986;4.354;2023-01-26T12:36:07;9.60;99.90
25138;DHT22;13112;50.986;4.354;2023-01-26T12:41:18;9.70;99.90
25138;DHT22;13112;50.986;4.354;2023-01-26T12:46:36;9.80;99.90
25138;DHT22;13112;50.986;4.354;2023-01-26T12:49:22;10.00;99.90
25138;DHT22;13112;50.986;4.354;2023-01-26T12:51:57;10.10;99.90
25138;DHT22;13112;50.986;4.354;2023-01-26T12:54:33;10.30;99.90
25138;DHT22;13112;50.986;4.354;2023-01-26T12:57:04;10.80;99.90
25138;DHT22;13112;50.986;4.354;2023-01-26T12:59:35;10.90;99.90
25138;DHT22;13112;50.986;4.354;2023-01-26T13:04:42;11.40;99.90
25138;DHT22;13112;50.986;4.354;2023-01-26T13:07:31;11.30;99.90
25138;DHT22;13112;50.986;4.354;2023-01-26T13:18:54;10.70;99.90
25138;DHT22;13112;50.986;4.354;2023-01-26T13:31:56;10.50;99.90
25138;DHT22;13112;50.986;4.354;2023-01-26T13:34:36;10.30;99.90
25138;DHT22;13112;50.986;4.354;2023-01-26T13:40:00;9.80;99.90
25138;DHT22;13112;50.986;4.354;2023-01-26T13:42:45;9.60;99.90
25138;DHT22;13112;50.986;4.354;2023-01-26T13:48:14;9.60;99.90
25138;DHT22;13112;50.986;4.354;2023-01-26T13:50:46;9.50;99.90
25138;DHT22;13112;50.986;4.354;2023-01-26T13:53:37;9.50;99.90
25138;DHT22;13112;50.986;4.354;2023-01-26T13:56:19;9.40;99.90
25138;DHT22;13112;50.986;4.354;2023-01-26T13:58:45;9.40;99.90
25138;DHT22;13112;50.986;4.354;2023-01-26T14:01:12;9.50;99.90
25138;DHT22;13112;50.986;4.354;2023-01-26T14:03:38;9.50;99.90
25138;DHT22;13112;50.986;4.354;2023-01-26T14:06:16;9.40;99.90
25138;DHT22;13112;50.986;4.354;2023-01-26T14:08:53;9.50;99.90
25138;DHT22;13112;50.986;4.354;2023-01-26T14:11:21;9.50;99.90
25138;DHT22;13112;50.986;4.354;2023-01-26T14:13:53;9.50;99.90
25138;DHT22;13112;50.986;4.354;2023-01-26T14:16:29;9.40;99.90
25138;DHT22;13112;50.986;4.354;2023-01-26T14:21:51;9.40;99.90
25138;DHT22;13112;50.986;4.354;2023-01-26T14:24:23;9.50;99.90
25138;DHT22;13112;50.986;4.354;2023-01-26T14:26:49;9.60;99.90
25138;DHT22;13112;50.986;4.354;2023-01-26T14:29:21;9.50;99.90
25138;DHT22;13112;50.986;4.354;2023-01-26T14:31:47;9.50;99.90
25138;DHT22;13112;50.986;4.354;2023-01-26T14:34:19;9.40;99.90
25138;DHT22;13112;50.986;4.354;2023-01-26T14:36:45;9.30;99.90
25138;DHT22;13112;50.986;4.354;2023-01-26T14:39:19;9.50;99.90
25138;DHT22;13112;50.986;4.354;2023-01-26T14:41:45;9.30;99.90
25138;DHT22;13112;50.986;4.354;2023-01-26T14:44:12;9.40;99.90
25138;DHT22;13112;50.986;4.354;2023-01-26T14:49:15;9.20;99.90
25138;DHT22;13112;50.986;4.354;2023-01-26T14:51:43;9.10;99.90
25138;DHT22;13112;50.986;4.354;2023-01-26T14:54:24;9.10;99.90
25138;DHT22;13112;50.986;4.354;2023-01-26T14:56:52;9.10;99.90
25138;DHT22;13112;50.986;4.354;2023-01-26T14:59:24;9.10;99.90
25138;DHT22;13112;50.986;4.354;2023-01-26T15:01:50;9.20;99.90
25138;DHT22;13112;50.986;4.354;2023-01-26T15:04:26;9.30;99.90
25138;DHT22;13112;50.986;4.354;2023-01-26T15:06:53;9.10;99.90
25138;DHT22;13112;50.986;4.354;2023-01-26T15:09:24;9.00;99.90
25138;DHT22;13112;50.986;4.354;2023-01-26T15:11:58;9.00;99.90
25138;DHT22;13112;50.986;4.354;2023-01-26T15:17:37;8.90;99.90
25138;DHT22;13112;50.986;4.354;2023-01-26T15:22:50;9.10;99.90
25138;DHT22;13112;50.986;4.354;2023-01-26T15:25:25;9.10;99.90
25138;DHT22;13112;50.986;4.354;2023-01-26T15:28:11;9.10;99.90
25138;DHT22;13112;50.986;4.354;2023-01-26T15:30:46;9.00;99.90
25138;DHT22;13112;50.986;4.354;2023-01-26T15:36:01;9.00;99.90
25138;DHT22;13112;50.986;4.354;2023-01-26T15:38:26;9.00;99.90
25138;DHT22;13112;50.986;4.354;2023-01-26T15:40:52;9.00;99.90
25138;DHT22;13112;50.986;4.354;2023-01-26T15:43:19;8.90;99.90
25138;DHT22;13112;50.986;4.354;2023-01-26T15:45:57;8.90;99.90
25138;DHT22;13112;50.986;4.354;2023-01-26T15:48:24;8.90;99.90
25138;DHT22;13112;50.986;4.354;2023-01-26T15:50:51;8.90;99.90
25138;DHT22;13112;50.986;4.354;2023-01-26T15:53:19;8.80;99.90
25138;DHT22;13112;50.986;4.354;2023-01-26T15:55:47;8.80;99.90
25138;DHT22;13112;50.986;4.354;2023-01-26T15:58:17;8.90;99.90
25138;DHT22;13112;50.986;4.354;2023-01-26T16:00:44;8.80;99.90
25138;DHT22;13112;50.986;4.354;2023-01-26T16:03:15;8.90;99.90
25138;DHT22;13112;50.986;4.354;2023-01-26T16:05:41;8.90;99.90
25138;DHT22;13112;50.986;4.354;2023-01-26T16:08:09;8.90;99.90
25138;DHT22;13112;50.986;4.354;2023-01-26T16:10:36;8.90;99.90
25138;DHT22;13112;50.986;4.354;2023-01-26T16:13:10;8.80;99.90
25138;DHT22;13112;50.986;4.354;2023-01-26T16:15:48;8.70;99.90
25138;DHT22;13112;50.986;4.354;2023-01-26T16:18:14;8.60;99.90
25138;DHT22;13112;50.986;4.354;2023-01-26T16:20:42;8.90;99.90
25138;DHT22;13112;50.986;4.354;2023-01-26T16:23:27;8.80;99.90
25138;DHT22;13112;50.986;4.354;2023-01-26T16:25:54;8.60;99.90
25138;DHT22;13112;50.986;4.354;2023-01-26T16:28:20;8.60;99.90
25138;DHT22;13112;50.986;4.354;2023-01-26T16:30:47;8.40;99.90
25138;DHT22;13112;50.986;4.354;2023-01-26T16:33:19;8.40;99.90
25138;DHT22;13112;50.986;4.354;2023-01-26T16:35:48;8.50;99.90
25138;DHT22;13112;50.986;4.354;2023-01-26T16:38:14;8.40;99.90
25138;DHT22;13112;50.986;4.354;2023-01-26T16:40:43;8.40;99.90
25138;DHT22;13112;50.986;4.354;2023-01-26T16:43:22;8.40;99.90
25138;DHT22;13112;50.986;4.354;2023-01-26T16:45:48;8.40;99.90
25138;DHT22;13112;50.986;4.354;2023-01-26T16:48:15;8.40;99.90
25138;DHT22;13112;50.986;4.354;2023-01-26T16:50:42;8.50;99.90
25138;DHT22;13112;50.986;4.354;2023-01-26T16:55:46;8.30;99.90
25138;DHT22;13112;50.986;4.354;2023-01-26T16:58:12;8.30;99.90
25138;DHT22;13112;50.986;4.354;2023-01-26T17:00:37;8.30;99.90
25138;DHT22;13112;50.986;4.354;2023-01-26T17:03:03;8.40;99.90
25138;DHT22;13112;50.986;4.354;2023-01-26T17:05:31;8.40;99.90
25138;DHT22;13112;50.986;4.354;2023-01-26T17:07:59;8.40;99.90
25138;DHT22;13112;50.986;4.354;2023-01-26T17:10:24;8.40;99.90
25138;DHT22;13112;50.986;4.354;2023-01-26T17:12:50;8.40;99.90
25138;DHT22;13112;50.986;4.354;2023-01-26T17:15:17;8.30;99.90
25138;DHT22;13112;50.986;4.354;2023-01-26T17:17:43;8.20;99.90
25138;DHT22;13112;50.986;4.354;2023-01-26T17:20:11;8.20;99.90
25138;DHT22;13112;50.986;4.354;2023-01-26T17:22:37;8.20;99.90
25138;DHT22;13112;50.986;4.354;2023-01-26T17:25:03;8.20;99.90
25138;DHT22;13112;50.986;4.354;2023-01-26T17:27:29;8.20;99.90
25138;DHT22;13112;50.986;4.354;2023-01-26T17:29:55;8.30;99.90
25138;DHT22;13112;50.986;4.354;2023-01-26T17:32:22;8.30;99.90
25138;DHT22;13112;50.986;4.354;2023-01-26T17:34:53;8.30;99.90
25138;DHT22;13112;50.986;4.354;2023-01-26T17:37:22;8.30;99.90
25138;DHT22;13112;50.986;4.354;2023-01-26T17:39:48;8.40;99.90
25138;DHT22;13112;50.986;4.354;2023-01-26T17:42:14;8.30;99.90
25138;DHT22;13112;50.986;4.354;2023-01-26T17:44:40;8.20;99.90
25138;DHT22;13112;50.986;4.354;2023-01-26T17:47:07;8.20;99.90
25138;DHT22;13112;50.986;4.354;2023-01-26T17:49:34;8.20;99.90
25138;DHT22;13112;50.986;4.354;2023-01-26T17:52:04;8.20;99.90
25138;DHT22;13112;50.986;4.354;2023-01-26T17:54:30;8.20;99.90
25138;DHT22;13112;50.986;4.354;2023-01-26T17:56:56;8.00;99.90
25138;DHT22;13112;50.986;4.354;2023-01-26T17:59:23;8.00;99.90